createdAt,value
2022-10-28T00:01:23.678Z,75.15
2022-10-28T00:03:25.856Z,81.88
2022-10-28T00:05:29.001Z,80.85
2022-10-28T00:07:30.791Z,80.38
2022-10-28T00:09:32.912Z,79.30
2022-10-28T00:11:35.318Z,78.30
2022-10-28T00:13:38.099Z,78.20
2022-10-28T00:17:42.032Z,78.75
2022-10-28T00:19:44.381Z,80.38
2022-10-28T00:21:46.528Z,77.72
2022-10-28T00:23:48.499Z,77.53
2022-10-28T00:25:50.271Z,73.93
2022-10-28T00:27:53.042Z,74.20
2022-10-28T00:29:55.512Z,74.25
2022-10-28T00:31:57.343Z,77.07
2022-10-28T00:34:01.309Z,76.13
2022-10-28T00:36:12.412Z,73.70
2022-10-28T00:38:14.224Z,72.85
2022-10-28T00:40:16.448Z,73.03
2022-10-28T00:42:22.273Z,71.80
2022-10-28T00:44:43.455Z,70.10
2022-10-28T00:46:49.393Z,76.70
2022-10-28T00:48:55.574Z,74.13
2022-10-28T00:50:57.921Z,74.50
2022-10-28T00:53:07.824Z,71.47
2022-10-28T00:55:09.821Z,73.72
2022-10-28T00:57:16.952Z,75.00
2022-10-28T00:59:23.188Z,72.05
2022-10-28T01:01:25.250Z,70.57
2022-10-28T01:03:27.311Z,71.32
2022-10-28T01:05:32.487Z,68.15
2022-10-28T01:07:34.795Z,72.00
2022-10-28T01:09:38.443Z,73.63
2022-10-28T01:11:43.296Z,72.00
2022-10-28T01:14:02.291Z,71.45
2022-10-28T01:16:29.644Z,70.40
2022-10-28T01:18:58.279Z,71.30
2022-10-28T01:21:22.017Z,71.70
2022-10-28T01:23:36.019Z,71.65
2022-10-28T01:26:03.431Z,71.22
2022-10-28T01:28:31.891Z,73.18
2022-10-28T01:31:03.304Z,71.78
2022-10-28T01:33:21.803Z,72.57
2022-10-28T01:35:42.344Z,73.63
2022-10-28T01:38:08.925Z,73.68
2022-10-28T01:40:23.098Z,73.80
2022-10-28T01:42:30.551Z,73.97
2022-10-28T01:44:42.847Z,77.10
2022-10-28T01:46:50.916Z,76.03
2022-10-28T01:49:01.996Z,76.38
2022-10-28T01:51:38.963Z,76.88
2022-10-28T01:53:45.779Z,74.22
2022-10-28T01:55:50.764Z,74.30
2022-10-28T01:57:56.780Z,72.32
2022-10-28T01:59:59.939Z,73.93
2022-10-28T02:04:04.663Z,72.55
2022-10-28T02:06:15.705Z,70.43
2022-10-28T02:08:50.197Z,69.13
2022-10-28T02:10:51.940Z,69.60
2022-10-28T02:12:56.505Z,69.67
2022-10-28T02:14:58.292Z,72.50
2022-10-28T02:17:05.892Z,72.72
2022-10-28T02:19:36.129Z,67.80
2022-10-28T02:21:56.682Z,69.03
2022-10-28T02:24:22.154Z,70.78
2022-10-28T02:26:57.100Z,74.32
2022-10-28T02:29:17.643Z,71.40
2022-10-28T02:31:32.539Z,74.10
2022-10-28T02:33:38.373Z,74.50
2022-10-28T02:35:52.615Z,72.82
2022-10-28T02:37:55.585Z,73.22
2022-10-28T02:40:05.809Z,73.60
2022-10-28T02:42:15.792Z,70.38
2022-10-28T02:44:25.072Z,71.38
2022-10-28T02:46:30.952Z,72.60
2022-10-28T02:48:41.350Z,75.47
2022-10-28T02:50:50.207Z,74.25
2022-10-28T02:52:58.538Z,70.30
2022-10-28T02:55:04.989Z,73.47
2022-10-28T02:57:16.211Z,70.32
2022-10-28T02:59:18.451Z,70.63
2022-10-28T03:01:20.431Z,67.85
2022-10-28T03:03:22.437Z,69.57
2022-10-28T03:05:24.546Z,67.28
2022-10-28T03:07:26.351Z,71.55
2022-10-28T03:09:28.216Z,69.30
2022-10-28T03:11:30.370Z,67.60
2022-10-28T03:13:32.291Z,67.65
2022-10-28T03:15:34.216Z,68.30
2022-10-28T03:17:36.338Z,64.85
2022-10-28T03:19:38.584Z,64.47
2022-10-28T03:21:40.441Z,65.78
2022-10-28T03:23:42.589Z,63.67
2022-10-28T03:25:44.559Z,65.30
2022-10-28T03:27:46.455Z,64.03
2022-10-28T03:29:48.597Z,65.25
2022-10-28T03:31:50.455Z,65.68
2022-10-28T03:33:52.315Z,67.95
2022-10-28T03:35:54.865Z,64.93
2022-10-28T03:37:56.643Z,63.17
2022-10-28T03:40:01.334Z,65.82
2022-10-28T03:42:03.617Z,67.05
2022-10-28T03:44:05.543Z,66.25
2022-10-28T03:46:07.461Z,65.57
2022-10-28T03:48:09.838Z,63.72
2022-10-28T03:50:11.889Z,66.47
2022-10-28T03:52:13.671Z,62.90
2022-10-28T03:54:16.030Z,61.08
2022-10-28T03:56:19.151Z,63.65
2022-10-28T03:58:21.893Z,63.03
2022-10-28T04:00:23.975Z,65.65
2022-10-28T04:02:26.967Z,63.53
2022-10-28T04:04:30.827Z,62.63
2022-10-28T04:06:33.100Z,61.00
2022-10-28T04:08:34.937Z,61.17
2022-10-28T04:10:37.446Z,58.28
2022-10-28T04:12:39.704Z,60.83
2022-10-28T04:14:42.641Z,59.35
2022-10-28T04:16:44.554Z,57.35
2022-10-28T04:18:49.201Z,57.53
2022-10-28T04:20:51.040Z,59.15
2022-10-28T04:22:57.135Z,58.78
2022-10-28T04:24:59.835Z,58.30
2022-10-28T04:27:01.675Z,56.08
2022-10-28T04:29:03.509Z,57.10
2022-10-28T04:31:05.672Z,56.13
2022-10-28T04:33:07.568Z,56.42
2022-10-28T04:35:11.034Z,57.75
2022-10-28T04:37:15.901Z,56.85
2022-10-28T04:39:20.222Z,55.00
2022-10-28T04:41:22.051Z,56.55
2022-10-28T04:43:24.314Z,54.85
2022-10-28T04:45:26.194Z,55.08
2022-10-28T04:47:27.996Z,54.05
2022-10-28T04:49:34.226Z,55.10
2022-10-28T04:51:37.472Z,55.03
2022-10-28T04:53:39.395Z,56.40
2022-10-28T04:55:41.539Z,60.00
2022-10-28T04:57:43.692Z,55.70
2022-10-28T04:59:46.867Z,58.47
2022-10-28T05:01:49.119Z,57.60
2022-10-28T05:03:51.052Z,56.90
2022-10-28T05:05:52.880Z,56.92
2022-10-28T05:07:55.383Z,58.70
2022-10-28T05:09:57.569Z,58.83
2022-10-28T05:11:59.404Z,59.17
2022-10-28T05:14:01.655Z,60.03
2022-10-28T05:16:03.932Z,57.30
2022-10-28T05:18:06.937Z,56.83
2022-10-28T05:20:10.347Z,58.53
2022-10-28T05:24:14.217Z,58.55
2022-10-28T05:26:16.488Z,59.05
2022-10-28T05:28:19.101Z,120.85
2022-10-28T05:30:20.970Z,70.38
2022-10-28T05:32:23.072Z,53.87
2022-10-28T05:34:24.927Z,53.35
2022-10-28T05:36:26.875Z,50.55
2022-10-28T05:38:29.189Z,51.25
2022-10-28T05:40:33.783Z,51.30
2022-10-28T05:42:41.461Z,50.10
2022-10-28T05:44:43.762Z,51.75
2022-10-28T05:46:45.676Z,49.17
2022-10-28T05:48:47.451Z,50.25
2022-10-28T05:50:49.842Z,49.00
2022-10-28T05:52:53.679Z,50.55
2022-10-28T05:54:55.583Z,49.22
2022-10-28T05:56:57.800Z,49.53
2022-10-28T05:58:59.829Z,51.67
2022-10-28T06:01:01.633Z,57.88
2022-10-28T06:03:12.184Z,60.73
2022-10-28T06:05:14.824Z,204.00
2022-10-28T06:07:16.633Z,151.65
2022-10-28T06:09:18.874Z,74.43
2022-10-28T06:11:19.154Z,75.63
2022-10-28T06:13:21.448Z,67.72
2022-10-28T06:15:23.989Z,57.33
2022-10-28T06:17:25.978Z,59.45
2022-10-28T06:19:27.790Z,50.88
2022-10-28T06:21:30.124Z,51.17
2022-10-28T06:23:31.980Z,43.03
2022-10-28T06:25:33.804Z,53.25
2022-10-28T06:27:35.975Z,48.43
2022-10-28T06:29:37.766Z,42.95
2022-10-28T06:31:40.684Z,37.85
2022-10-28T06:33:42.968Z,38.53
2022-10-28T06:35:44.795Z,36.97
2022-10-28T06:37:47.084Z,36.20
2022-10-28T06:39:51.456Z,35.08
2022-10-28T06:41:53.479Z,34.90
2022-10-28T06:43:55.380Z,34.38
2022-10-28T06:46:04.394Z,34.67
2022-10-28T06:48:15.753Z,35.65
2022-10-28T06:50:17.583Z,34.97
2022-10-28T06:52:19.937Z,34.47
2022-10-28T06:54:22.106Z,34.08
2022-10-28T06:56:23.949Z,31.75
2022-10-28T06:58:26.724Z,33.22
2022-10-28T07:02:54.693Z,31.42
2022-10-28T07:04:57.222Z,30.73
2022-10-28T07:06:59.521Z,30.35
2022-10-28T07:09:01.416Z,30.92
2022-10-28T07:11:04.099Z,31.40
2022-10-28T07:13:06.165Z,31.92
2022-10-28T07:15:08.555Z,30.10
2022-10-28T07:17:10.864Z,31.20
2022-10-28T07:19:12.734Z,30.77
2022-10-28T07:21:44.989Z,31.75
2022-10-28T07:23:50.790Z,31.65
2022-10-28T07:25:56.725Z,32.80
2022-10-28T07:28:03.001Z,31.63
2022-10-28T07:30:05.982Z,32.10
2022-10-28T07:32:07.881Z,31.67
2022-10-28T07:34:09.832Z,33.53
2022-10-28T07:36:12.212Z,33.17
2022-10-28T07:38:14.093Z,33.77
2022-10-28T07:40:16.231Z,32.15
2022-10-28T07:42:18.431Z,31.98
2022-10-28T07:44:21.417Z,32.67
2022-10-28T07:46:23.347Z,33.13
2022-10-28T07:48:25.794Z,33.55
2022-10-28T07:50:27.713Z,33.63
2022-10-28T07:52:29.653Z,33.27
2022-10-28T07:54:32.098Z,33.17
2022-10-28T07:56:34.264Z,34.17
2022-10-28T07:58:36.984Z,33.72
2022-10-28T08:00:39.356Z,31.77
2022-10-28T08:02:42.153Z,34.08
2022-10-28T08:06:46.565Z,31.20
2022-10-28T08:08:52.982Z,33.85
2022-10-28T08:10:55.314Z,35.15
2022-10-28T08:13:01.118Z,35.67
2022-10-28T08:15:04.195Z,35.25
2022-10-28T08:17:06.380Z,35.65
2022-10-28T08:19:08.486Z,35.53
2022-10-28T08:21:12.102Z,34.83
2022-10-28T08:23:14.230Z,35.70
2022-10-28T08:25:16.458Z,35.90
2022-10-28T08:27:18.261Z,34.88
2022-10-28T08:29:20.073Z,36.95
2022-10-28T08:31:22.197Z,37.25
2022-10-28T08:33:23.973Z,37.63
2022-10-28T08:35:25.824Z,38.10
2022-10-28T08:37:28.138Z,36.75
2022-10-28T08:39:30.013Z,38.23
2022-10-28T08:41:31.877Z,48.10
2022-10-28T08:44:06.235Z,38.08
2022-10-28T08:46:15.391Z,37.20
2022-10-28T08:48:34.006Z,37.63
2022-10-28T08:50:55.726Z,36.33
2022-10-28T08:53:03.709Z,38.15
2022-10-28T08:55:16.681Z,37.90
2022-10-28T08:59:31.275Z,39.03
2022-10-28T09:01:52.910Z,38.40
2022-10-28T09:03:55.175Z,37.70
2022-10-28T09:06:09.633Z,37.00
2022-10-28T09:08:23.868Z,36.75
2022-10-28T09:10:40.894Z,36.15
2022-10-28T09:12:58.850Z,37.85
2022-10-28T09:15:20.462Z,35.78
2022-10-28T09:17:54.326Z,38.08
2022-10-28T09:22:33.675Z,35.55
2022-10-28T09:24:48.502Z,36.42
2022-10-28T09:27:03.658Z,38.80
2022-10-28T09:29:34.658Z,37.65
2022-10-28T09:31:41.578Z,38.22
2022-10-28T09:33:57.849Z,40.38
2022-10-28T09:36:00.999Z,38.22
2022-10-28T09:38:16.110Z,36.33
2022-10-28T09:40:24.317Z,37.97
2022-10-28T09:42:31.589Z,36.65
2022-10-28T09:44:45.710Z,37.05
2022-10-28T09:46:50.716Z,36.95
2022-10-28T09:48:55.965Z,35.83
2022-10-28T09:50:59.114Z,35.75
2022-10-28T09:53:38.326Z,38.50
2022-10-28T09:55:40.486Z,36.05
2022-10-28T09:57:44.144Z,37.60
2022-10-28T09:59:46.999Z,37.80
2022-10-28T10:01:48.902Z,37.03
2022-10-28T10:03:52.421Z,37.13
2022-10-28T10:05:57.617Z,37.80
2022-10-28T10:08:04.682Z,37.45
2022-10-28T10:10:22.043Z,36.50
2022-10-28T10:12:24.934Z,36.17
2022-10-28T10:14:36.909Z,36.03
2022-10-28T10:16:47.488Z,38.45
2022-10-28T10:18:54.769Z,35.92
2022-10-28T10:21:01.401Z,35.97
2022-10-28T10:23:22.482Z,34.17
2022-10-28T10:25:29.900Z,34.92
2022-10-28T10:27:32.584Z,36.42
2022-10-28T10:31:37.571Z,35.33
2022-10-28T10:33:40.676Z,34.95
2022-10-28T10:35:42.927Z,36.33
2022-10-28T10:37:47.573Z,35.88
2022-10-28T10:40:38.862Z,34.90
2022-10-28T10:42:51.708Z,36.35
2022-10-28T10:45:27.363Z,34.88
2022-10-28T10:47:30.058Z,33.50
2022-10-28T10:49:32.556Z,33.40
2022-10-28T10:51:37.463Z,36.33
2022-10-28T10:53:48.179Z,33.00
2022-10-28T10:55:54.933Z,32.22
2022-10-28T10:57:57.779Z,33.45
2022-10-28T11:02:02.179Z,33.47
2022-10-28T11:04:08.595Z,33.60
2022-10-28T11:06:23.895Z,33.60
2022-10-28T11:08:39.962Z,33.42
2022-10-28T11:10:41.805Z,32.65
2022-10-28T11:12:55.577Z,33.50
2022-10-28T11:15:00.746Z,33.55
2022-10-28T11:17:03.351Z,33.63
2022-10-28T11:19:28.551Z,31.98
2022-10-28T11:21:49.177Z,31.52
2022-10-28T11:24:09.368Z,30.23
2022-10-28T11:26:15.445Z,30.67
2022-10-28T11:28:39.258Z,29.50
2022-10-28T11:31:08.767Z,28.83
2022-10-28T11:33:30.047Z,27.65
2022-10-28T11:35:44.730Z,30.60
2022-10-28T11:37:51.371Z,29.10
2022-10-28T11:40:39.135Z,27.67
2022-10-28T11:42:59.747Z,28.42
2022-10-28T11:45:28.112Z,27.73
2022-10-28T11:47:39.011Z,28.13
2022-10-28T11:50:00.506Z,26.92
2022-10-28T11:52:11.067Z,27.60
2022-10-28T11:54:31.228Z,25.77
2022-10-28T11:56:42.473Z,26.73
2022-10-28T11:58:53.303Z,25.30
2022-10-28T12:01:04.117Z,24.20
2022-10-28T12:03:28.653Z,23.17
2022-10-28T12:08:01.449Z,22.05
2022-10-28T12:10:19.733Z,22.23
2022-10-28T12:12:32.245Z,22.38
2022-10-28T12:14:44.983Z,23.42
2022-10-28T12:17:01.263Z,22.92
2022-10-28T12:19:06.011Z,21.35
2022-10-28T12:21:32.862Z,22.35
2022-10-28T12:23:39.193Z,21.90
2022-10-28T12:25:44.404Z,21.70
2022-10-28T12:27:50.554Z,19.90
2022-10-28T12:30:01.930Z,17.00
2022-10-28T12:32:08.359Z,17.65
2022-10-28T12:34:15.909Z,16.38
2022-10-28T12:36:44.587Z,15.77
2022-10-28T12:39:10.834Z,15.75
2022-10-28T12:41:21.284Z,16.63
2022-10-28T12:43:26.858Z,16.63
2022-10-28T12:45:31.478Z,15.80
2022-10-28T12:47:43.349Z,15.50
2022-10-28T12:50:20.499Z,15.82
2022-10-28T12:52:36.790Z,14.82
2022-10-28T12:54:53.696Z,13.90
2022-10-28T12:57:14.649Z,14.00
2022-10-28T12:59:37.933Z,12.93
2022-10-28T13:01:40.137Z,12.70
2022-10-28T13:03:42.933Z,12.60
2022-10-28T13:05:52.628Z,12.90
2022-10-28T13:08:33.112Z,12.98
2022-10-28T13:11:09.465Z,12.25
2022-10-28T13:13:28.970Z,13.25
2022-10-28T13:15:41.689Z,13.13
2022-10-28T13:19:57.759Z,13.15
2022-10-28T13:22:19.472Z,12.18
2022-10-28T13:24:28.502Z,12.82
2022-10-28T13:26:35.863Z,12.45
2022-10-28T13:28:46.539Z,12.48
2022-10-28T13:30:58.868Z,12.95
2022-10-28T13:33:09.735Z,14.35
2022-10-28T13:35:11.794Z,15.32
2022-10-28T13:37:23.666Z,13.60
2022-10-28T13:39:39.142Z,12.68
2022-10-28T13:41:44.767Z,12.25
2022-10-28T13:43:50.443Z,11.52
2022-10-28T13:45:56.235Z,11.25
2022-10-28T13:48:46.487Z,12.52
2022-10-28T13:50:48.663Z,12.10
2022-10-28T13:53:42.707Z,11.40
2022-10-28T13:55:44.887Z,11.35
2022-10-28T13:57:50.153Z,12.25
2022-10-28T13:59:59.215Z,12.52
2022-10-28T14:02:32.347Z,11.50
2022-10-28T14:04:29.612Z,11.43
2022-10-28T14:06:34.518Z,11.57
2022-10-28T14:08:41.575Z,12.05
2022-10-28T14:10:59.039Z,12.80
2022-10-28T14:13:05.186Z,11.60
2022-10-28T14:15:07.372Z,18.88
2022-10-28T14:17:22.271Z,12.85
2022-10-28T14:19:24.363Z,12.45
2022-10-28T14:21:46.972Z,12.32
2022-10-28T14:24:07.509Z,12.68
2022-10-28T14:26:09.693Z,12.05
2022-10-28T14:28:29.813Z,12.45
2022-10-28T14:30:32.073Z,13.02
2022-10-28T14:32:34.034Z,13.30
2022-10-28T14:34:42.448Z,14.27
2022-10-28T14:37:00.629Z,14.90
2022-10-28T14:39:02.447Z,14.85
2022-10-28T14:41:38.766Z,15.60
2022-10-28T14:43:59.420Z,16.42
2022-10-28T14:46:19.460Z,15.55
2022-10-28T14:48:44.601Z,15.13
2022-10-28T14:50:51.655Z,15.45
2022-10-28T14:52:55.766Z,15.25
2022-10-28T14:54:59.760Z,15.18
2022-10-28T14:57:02.030Z,15.30
2022-10-28T14:59:22.846Z,15.30
2022-10-28T15:01:27.436Z,16.65
2022-10-28T15:03:29.756Z,15.90
2022-10-28T15:05:32.485Z,16.50
2022-10-28T15:07:37.890Z,17.10
2022-10-28T15:09:43.432Z,16.92
2022-10-28T15:11:59.072Z,17.13
2022-10-28T15:14:23.730Z,17.98
2022-10-28T15:16:26.002Z,17.80
2022-10-28T15:18:28.154Z,17.67
2022-10-28T15:20:34.518Z,17.95
2022-10-28T15:22:36.756Z,19.25
2022-10-28T15:24:41.663Z,18.05
2022-10-28T15:26:53.899Z,17.95
2022-10-28T15:28:56.229Z,19.58
2022-10-28T15:30:58.147Z,18.57
2022-10-28T15:33:30.203Z,18.93
2022-10-28T15:35:39.715Z,19.02
2022-10-28T15:37:41.676Z,20.02
2022-10-28T15:39:46.544Z,19.85
2022-10-28T15:41:56.433Z,19.55
2022-10-28T15:44:02.879Z,19.90
2022-10-28T15:46:10.939Z,19.88
2022-10-28T15:48:19.435Z,20.50
2022-10-28T15:50:32.095Z,21.15
2022-10-28T15:52:37.002Z,20.48
2022-10-28T15:54:40.104Z,20.33
2022-10-28T15:56:56.583Z,20.40
2022-10-28T15:59:04.435Z,20.30
2022-10-28T16:01:24.974Z,19.85
2022-10-28T16:03:47.259Z,21.48
2022-10-28T16:05:51.026Z,19.90
2022-10-28T16:07:53.559Z,20.77
2022-10-28T16:09:56.161Z,21.80
2022-10-28T16:12:02.454Z,22.05
2022-10-28T16:14:19.622Z,21.67
2022-10-28T16:16:27.185Z,21.65
2022-10-28T16:18:31.487Z,21.25
2022-10-28T16:20:33.726Z,21.67
2022-10-28T16:22:37.640Z,21.50
2022-10-28T16:24:39.486Z,20.30
2022-10-28T16:26:41.837Z,21.52
2022-10-28T16:28:45.348Z,21.67
2022-10-28T16:30:50.151Z,23.23
2022-10-28T16:32:52.740Z,22.55
2022-10-28T16:34:58.941Z,22.33
2022-10-28T16:37:00.797Z,22.17
2022-10-28T16:39:03.240Z,22.98
2022-10-28T16:41:07.355Z,22.10
2022-10-28T16:43:15.332Z,21.58
2022-10-28T16:45:18.622Z,22.25
2022-10-28T16:49:23.656Z,20.48
2022-10-28T16:51:25.947Z,21.25
2022-10-28T16:53:28.234Z,21.25
2022-10-28T16:55:30.264Z,21.60
2022-10-28T16:57:32.443Z,21.17
2022-10-28T16:59:34.296Z,21.38
2022-10-28T17:01:36.205Z,21.77
2022-10-28T17:03:38.552Z,21.45
2022-10-28T17:05:40.594Z,21.05
2022-10-28T17:07:42.405Z,20.77
2022-10-28T17:09:45.108Z,22.90
2022-10-28T17:11:47.047Z,20.92
2022-10-28T17:13:49.018Z,21.92
2022-10-28T17:15:54.210Z,22.02
2022-10-28T17:17:58.028Z,21.65
2022-10-28T17:20:00.038Z,22.83
2022-10-28T17:22:06.112Z,22.50
2022-10-28T17:24:10.847Z,23.35
2022-10-28T17:26:12.759Z,23.70
2022-10-28T17:28:14.991Z,22.60
2022-10-28T17:30:17.498Z,23.27
2022-10-28T17:32:19.543Z,22.55
2022-10-28T17:34:21.777Z,22.65
2022-10-28T17:36:23.795Z,21.93
2022-10-28T17:38:25.591Z,22.85
2022-10-28T17:40:27.795Z,21.40
2022-10-28T17:42:29.736Z,22.25
2022-10-28T17:44:31.622Z,24.27
2022-10-28T17:46:33.740Z,23.50
2022-10-28T17:48:35.726Z,22.77
2022-10-28T17:50:37.641Z,23.03
2022-10-28T17:54:42.611Z,23.08
2022-10-28T17:56:45.396Z,22.38
2022-10-28T17:58:47.705Z,22.85
2022-10-28T18:00:49.522Z,23.43
2022-10-28T18:02:56.430Z,21.17
2022-10-28T18:04:58.710Z,22.48
2022-10-28T18:07:00.535Z,21.00
2022-10-28T18:09:02.675Z,21.02
2022-10-28T18:11:06.701Z,21.58
2022-10-28T18:13:08.528Z,21.45
2022-10-28T18:15:11.039Z,20.95
2022-10-28T18:17:14.690Z,20.45
2022-10-28T18:19:17.154Z,21.40
2022-10-28T18:21:19.176Z,21.90
2022-10-28T18:23:23.863Z,21.10
2022-10-28T18:25:25.761Z,21.08
2022-10-28T18:27:29.487Z,21.60
2022-10-28T18:29:31.655Z,21.63
2022-10-28T18:31:34.169Z,20.88
2022-10-28T18:33:36.418Z,20.42
2022-10-28T18:35:38.834Z,20.40
2022-10-28T18:37:40.906Z,20.23
2022-10-28T18:41:45.755Z,20.85
2022-10-28T18:43:48.023Z,20.50
2022-10-28T18:45:50.918Z,20.45
2022-10-28T18:47:53.355Z,19.85
2022-10-28T18:49:55.671Z,19.80
2022-10-28T18:51:59.786Z,20.15
2022-10-28T18:54:02.465Z,19.60
2022-10-28T18:56:06.756Z,20.23
2022-10-28T18:58:12.085Z,18.95
2022-10-28T19:00:21.277Z,18.98
2022-10-28T19:02:23.397Z,18.95
2022-10-28T19:04:25.788Z,18.63
2022-10-28T19:06:32.508Z,18.23
2022-10-28T19:08:35.459Z,18.25
2022-10-28T19:10:37.478Z,18.63
2022-10-28T19:12:42.934Z,18.55
2022-10-28T19:14:47.640Z,18.80
2022-10-28T19:16:49.472Z,17.48
2022-10-28T19:18:59.151Z,18.13
2022-10-28T19:21:10.686Z,16.73
2022-10-28T19:23:12.678Z,17.23
2022-10-28T19:25:15.077Z,16.95
2022-10-28T19:27:17.574Z,16.90
2022-10-28T19:29:19.426Z,17.55
2022-10-28T19:31:24.172Z,17.45
2022-10-28T19:33:27.527Z,16.77
2022-10-28T19:35:29.507Z,17.90
2022-10-28T19:37:31.622Z,17.08
2022-10-28T19:39:33.470Z,16.92
2022-10-28T19:41:35.372Z,16.88
2022-10-28T19:43:37.803Z,17.98
2022-10-28T19:45:39.653Z,16.53
2022-10-28T19:47:41.624Z,16.77
2022-10-28T19:49:44.568Z,16.73
2022-10-28T19:51:46.815Z,16.50
2022-10-28T19:53:53.291Z,16.67
2022-10-28T19:56:00.641Z,16.80
2022-10-28T19:58:02.443Z,16.00
2022-10-28T20:00:05.515Z,16.98
2022-10-28T20:02:07.892Z,16.27
2022-10-28T20:04:10.250Z,16.60
2022-10-28T20:06:15.121Z,17.48
2022-10-28T20:08:17.318Z,16.33
2022-10-28T20:10:19.291Z,16.10
2022-10-28T20:12:21.135Z,16.90
2022-10-28T20:14:23.339Z,17.80
2022-10-28T20:16:26.966Z,16.83
2022-10-28T20:18:30.677Z,17.50
2022-10-28T20:20:34.919Z,16.38
2022-10-28T20:22:41.388Z,17.45
2022-10-28T20:24:45.317Z,16.40
2022-10-28T20:26:47.540Z,17.27
2022-10-28T20:28:50.641Z,15.18
2022-10-28T20:33:01.669Z,15.65
2022-10-28T20:35:03.658Z,16.13
2022-10-28T20:37:05.955Z,16.25
2022-10-28T20:39:12.568Z,15.82
2022-10-28T20:41:16.357Z,15.75
2022-10-28T20:43:20.392Z,15.43
2022-10-28T20:45:22.644Z,15.75
2022-10-28T20:47:24.584Z,16.10
2022-10-28T20:49:26.954Z,17.08
2022-10-28T20:51:31.639Z,16.40
2022-10-28T20:53:34.615Z,16.88
2022-10-28T20:57:38.784Z,16.55
2022-10-28T20:59:40.606Z,17.10
2022-10-28T21:01:42.539Z,16.70
2022-10-28T21:03:45.807Z,16.17
2022-10-28T21:05:48.149Z,16.33
2022-10-28T21:07:50.070Z,16.70
2022-10-28T21:09:52.282Z,19.65
2022-10-28T21:11:55.184Z,17.77
2022-10-28T21:14:00.158Z,17.13
2022-10-28T21:16:08.387Z,16.50
2022-10-28T21:18:11.242Z,16.95
2022-10-28T21:20:13.112Z,16.33
2022-10-28T21:22:15.614Z,16.35
2022-10-28T21:24:17.445Z,17.08
2022-10-28T21:26:19.990Z,16.88
2022-10-28T21:28:22.598Z,16.85
2022-10-28T21:30:25.147Z,16.38
2022-10-28T21:32:27.178Z,16.30
2022-10-28T21:34:29.308Z,16.13
2022-10-28T21:36:31.904Z,14.50
2022-10-28T21:38:34.397Z,15.70
2022-10-28T21:42:38.606Z,16.60
2022-10-28T21:44:40.609Z,15.07
2022-10-28T21:46:42.731Z,15.32
2022-10-28T21:48:44.866Z,15.40
2022-10-28T21:50:54.393Z,14.88
2022-10-28T21:55:20.941Z,15.77
2022-10-28T21:57:30.331Z,15.90
2022-10-28T21:59:32.709Z,16.40
2022-10-28T22:01:35.811Z,14.80
2022-10-28T22:03:38.330Z,15.13
2022-10-28T22:05:49.802Z,15.18
2022-10-28T22:07:51.877Z,16.00
2022-10-28T22:09:53.724Z,15.80
2022-10-28T22:11:55.824Z,15.15
2022-10-28T22:14:02.818Z,16.10
2022-10-28T22:16:07.302Z,15.68
2022-10-28T22:18:09.552Z,15.85
2022-10-28T22:20:11.391Z,16.05
2022-10-28T22:22:13.821Z,15.82
2022-10-28T22:24:16.069Z,16.25
2022-10-28T22:26:21.149Z,15.32
2022-10-28T22:28:23.054Z,16.83
2022-10-28T22:30:25.371Z,16.63
2022-10-28T22:32:27.155Z,17.05
2022-10-28T22:34:29.018Z,16.30
2022-10-28T22:36:31.351Z,16.50
2022-10-28T22:38:33.596Z,15.77
2022-10-28T22:40:35.511Z,17.00
2022-10-28T22:42:37.743Z,16.35
2022-10-28T22:44:39.525Z,16.70
2022-10-28T22:46:42.303Z,15.63
2022-10-28T22:48:45.477Z,15.93
2022-10-28T22:50:47.268Z,15.98
2022-10-28T22:52:49.130Z,16.15
2022-10-28T22:54:51.298Z,18.83
2022-10-28T22:56:53.138Z,15.32
2022-10-28T22:58:57.099Z,16.55
2022-10-28T23:01:14.377Z,15.98
2022-10-28T23:03:16.869Z,16.70
2022-10-28T23:05:18.747Z,16.42
2022-10-28T23:07:21.209Z,16.23
2022-10-28T23:09:23.018Z,15.40
2022-10-28T23:11:28.422Z,15.48
2022-10-28T23:13:30.799Z,15.68
2022-10-28T23:15:33.574Z,15.63
2022-10-28T23:17:35.588Z,15.65
2022-10-28T23:19:37.662Z,15.53
2022-10-28T23:21:39.693Z,14.45
2022-10-28T23:23:42.244Z,16.45
2022-10-28T23:25:51.841Z,16.15
2022-10-28T23:27:53.964Z,16.25
2022-10-28T23:29:56.090Z,15.40
2022-10-28T23:31:58.387Z,14.90
2022-10-28T23:34:00.221Z,15.15
2022-10-28T23:36:06.549Z,15.27
2022-10-28T23:38:11.722Z,14.25
2022-10-28T23:40:13.802Z,15.32
2022-10-28T23:42:15.727Z,15.80
2022-10-28T23:44:17.981Z,15.57
2022-10-28T23:46:20.561Z,14.82
2022-10-28T23:48:23.412Z,14.93
2022-10-28T23:50:25.705Z,16.25
2022-10-28T23:52:27.593Z,14.88
2022-10-28T23:54:29.377Z,15.35
2022-10-28T23:56:31.645Z,15.88
2022-10-28T23:58:33.455Z,15.07
